Time,TemperatureF,DewpointF,PressureIn,WindDirection,WindDirectionDegrees,WindSpeedMPH,WindSpeedGustMPH,Humidity,HourlyPrecipIn,Conditions,Clouds,dailyrainin,SoftwareType,DateUTC
2013-01-25 00:04:00,6.2,-9.4,30.21,WNW,288,1.0,7.0,48,0.00,CLR,,0.00,WeatherDisplay:10.37,2013-01-25 05:04:00,
2013-01-25 00:09:00,6.1,-9.4,30.21,WNW,286,0.0,7.0,48,0.00,CLR,,0.00,WeatherDisplay:10.37,2013-01-25 05:09:00,
2013-01-25 00:14:00,6.1,-9.4,30.21,WNW,284,2.0,6.0,48,0.00,CLR,,0.00,WeatherDisplay:10.37,2013-01-25 05:14:00,
2013-01-25 00:19:00,5.5,-10.0,30.21,WNW,290,6.0,10.0,48,0.00,CLR,,0.00,WeatherDisplay:10.37,2013-01-25 05:19:00,
2013-01-25 00:24:00,6.3,-9.3,30.21,WNW,290,0.0,10.0,48,0.00,CLR,,0.00,WeatherDisplay:10.37,2013-01-25 05:24:00,
2013-01-25 00:29:00,5.8,-9.7,30.21,WNW,286,0.0,7.0,48,0.00,CLR,,0.00,WeatherDisplay:10.37,2013-01-25 05:29:00,
2013-01-25 00:34:00,5.6,-9.9,30.21,WNW,285,1.0,8.0,48,0.00,CLR,,0.00,WeatherDisplay:10.37,2013-01-25 05:34:00,
2013-01-25 00:39:00,5.8,-9.7,30.21,WNW,289,1.0,8.0,48,0.00,CLR,,0.00,WeatherDisplay:10.37,2013-01-25 05:39:00,
2013-01-25 00:44:00,5.4,-10.1,30.21,WNW,292,1.0,7.0,48,0.00,CLR,,0.00,WeatherDisplay:10.37,2013-01-25 05:44:00,
2013-01-25 00:49:00,5.5,-10.0,30.21,WNW,292,2.0,15.0,48,0.00,CLR,,0.00,WeatherDisplay:10.37,2013-01-25 05:49:00,
2013-01-25 00:54:00,5.6,-9.9,30.22,WNW,294,3.0,6.0,48,0.00,CLR,,0.00,WeatherDisplay:10.37,2013-01-25 05:54:00,
2013-01-25 00:59:00,5.9,-9.6,30.22,WNW,287,0.0,10.0,48,0.00,CLR,,0.00,WeatherDisplay:10.37,2013-01-25 05:59:00,
2013-01-25 01:04:00,5.4,-8.9,30.22,WNW,294,0.0,6.0,51,0.00,CLR,,0.00,WeatherDisplay:10.37,2013-01-25 06:04:00,
2013-01-25 01:09:00,5.4,-8.8,30.22,WNW,296,1.0,8.0,51,0.00,CLR,,0.00,WeatherDisplay:10.37,2013-01-25 06:09:00,
2013-01-25 01:14:00,5.5,-8.8,30.22,WNW,288,0.0,6.0,51,0.00,CLR,,0.00,WeatherDisplay:10.37,2013-01-25 06:14:00,
2013-01-25 01:19:00,5.8,-8.4,30.23,WNW,288,1.0,8.0,51,0.00,CLR,,0.00,WeatherDisplay:10.37,2013-01-25 06:19:00,
2013-01-25 01:24:00,5.4,-8.9,30.23,WNW,290,2.0,8.0,51,0.00,CLR,,0.00,WeatherDisplay:10.37,2013-01-25 06:24:00,
2013-01-25 01:29:00,5.7,-8.6,30.23,WNW,291,1.0,10.0,51,0.00,CLR,,0.00,WeatherDisplay:10.37,2013-01-25 06:29:00,
2013-01-25 01:34:00,5.7,-8.6,30.23,West,280,0.0,7.0,51,0.00,CLR,,0.00,WeatherDisplay:10.37,2013-01-25 06:34:00,
2013-01-25 01:39:00,5.6,-8.6,30.24,WNW,285,5.0,12.0,51,0.00,CLR,,0.00,WeatherDisplay:10.37,2013-01-25 06:39:00,
2013-01-25 01:44:00,5.4,-8.8,30.24,WNW,290,5.0,9.0,51,0.00,CLR,,0.00,WeatherDisplay:10.37,2013-01-25 06:44:00,
2013-01-25 01:49:00,5.5,-8.7,30.24,WNW,292,0.0,13.0,51,0.00,CLR,,0.00,WeatherDisplay:10.37,2013-01-25 06:49:00,
2013-01-25 01:54:00,5.2,-9.0,30.24,WNW,284,1.0,9.0,51,0.00,CLR,,0.00,WeatherDisplay:10.37,2013-01-25 06:54:00,
2013-01-25 01:59:00,5.5,-8.8,30.24,WNW,286,0.0,9.0,51,0.00,CLR,,0.00,WeatherDisplay:10.37,2013-01-25 06:59:00,
2013-01-25 02:04:00,5.2,-9.0,30.24,NNW,333,7.0,13.0,51,0.00,CLR,,0.00,WeatherDisplay:10.37,2013-01-25 07:04:00,
2013-01-25 02:09:00,5.3,-9.0,30.24,North,349,3.0,10.0,51,0.00,CLR,,0.00,WeatherDisplay:10.37,2013-01-25 07:09:00,
2013-01-25 02:14:00,5.3,-8.9,30.24,North,360,1.0,14.0,51,0.00,CLR,,0.00,WeatherDisplay:10.37,2013-01-25 07:14:00,
2013-01-25 02:19:00,5.5,-8.8,30.24,NNW,346,2.0,16.0,51,0.00,CLR,,0.00,WeatherDisplay:10.37,2013-01-25 07:19:00,
2013-01-25 02:24:00,5.4,-8.9,30.24,NW,306,3.0,14.0,51,0.00,CLR,,0.00,WeatherDisplay:10.37,2013-01-25 07:24:00,
2013-01-25 02:30:00,5.2,-9.0,30.24,NW,322,6.0,13.0,51,0.00,CLR,,0.00,WeatherDisplay:10.37,2013-01-25 07:30:00,
2013-01-25 02:39:00,5.3,-8.9,30.24,NW,316,2.0,12.0,51,0.00,CLR,,0.00,WeatherDisplay:10.37,2013-01-25 07:39:00,
2013-01-25 02:44:00,5.6,-8.7,30.24,NW,304,1.0,15.0,51,0.00,CLR,,0.00,WeatherDisplay:10.37,2013-01-25 07:44:00,
2013-01-25 02:49:00,5.5,-8.7,30.24,NW,318,7.0,14.0,51,0.00,CLR,,0.00,WeatherDisplay:10.37,2013-01-25 07:49:00,
2013-01-25 02:54:00,5.3,-8.9,30.24,NNW,329,0.0,12.0,51,0.00,CLR,,0.00,WeatherDisplay:10.37,2013-01-25 07:54:00,
2013-01-25 02:59:00,5.0,-9.2,30.25,NW,319,1.0,11.0,51,0.00,CLR,,0.00,WeatherDisplay:10.37,2013-01-25 07:59:00,
2013-01-25 03:04:00,5.3,-8.2,30.24,NW,321,1.0,9.0,53,0.00,CLR,,0.00,WeatherDisplay:10.37,2013-01-25 08:04:00,
2013-01-25 03:09:00,4.9,-8.5,30.24,NW,316,1.0,8.0,53,0.00,CLR,,0.00,WeatherDisplay:10.37,2013-01-25 08:09:00,
2013-01-25 03:14:00,5.0,-8.4,30.24,NW,320,2.0,9.0,53,0.00,CLR,,0.00,WeatherDisplay:10.37,2013-01-25 08:14:00,
2013-01-25 03:20:00,5.2,-8.3,30.24,NW,323,1.0,5.0,53,0.00,CLR,,0.00,WeatherDisplay:10.37,2013-01-25 08:20:00,
2013-01-25 03:25:00,5.2,-8.2,30.24,NW,321,0.0,6.0,53,0.00,CLR,,0.00,WeatherDisplay:10.37,2013-01-25 08:25:00,
2013-01-25 03:30:00,5.3,-8.2,30.24,NW,315,0.0,3.0,53,0.00,CLR,,0.00,WeatherDisplay:10.37,2013-01-25 08:30:00,
2013-01-25 03:35:00,5.0,-8.5,30.24,NW,318,2.0,7.0,53,0.00,CLR,,0.00,WeatherDisplay:10.37,2013-01-25 08:35:00,
2013-01-25 03:40:00,4.2,-9.2,30.25,NW,319,0.0,5.0,53,0.00,CLR,,0.00,WeatherDisplay:10.37,2013-01-25 08:40:00,
2013-01-25 03:45:00,4.8,-8.7,30.24,NW,320,1.0,10.0,53,0.00,CLR,,0.00,WeatherDisplay:10.37,2013-01-25 08:45:00,
2013-01-25 03:50:00,4.5,-8.9,30.24,NW,322,5.0,8.0,53,0.00,CLR,,0.00,WeatherDisplay:10.37,2013-01-25 08:50:00,
2013-01-25 04:00:00,4.9,-8.5,30.24,NW,318,0.0,9.0,53,0.00,CLR,,0.00,WeatherDisplay:10.37,2013-01-25 09:00:00,
2013-01-25 04:05:00,4.7,-8.8,30.24,NW,319,0.0,8.0,53,0.00,CLR,,0.00,WeatherDisplay:10.37,2013-01-25 09:05:00,
2013-01-25 04:10:00,4.9,-8.5,30.23,NW,323,1.0,8.0,53,0.00,CLR,,0.00,WeatherDisplay:10.37,2013-01-25 09:10:00,
2013-01-25 04:15:00,4.9,-8.5,30.23,NW,320,1.0,5.0,53,0.00,CLR,,0.00,WeatherDisplay:10.37,2013-01-25 09:15:00,
2013-01-25 04:20:00,4.8,-8.6,30.23,NNW,346,0.0,10.0,53,0.00,CLR,,0.00,WeatherDisplay:10.37,2013-01-25 09:20:00,
2013-01-25 04:25:00,5.3,-8.2,30.24,North,1,0.0,8.0,53,0.00,CLR,,0.00,WeatherDisplay:10.37,2013-01-25 09:25:00,
2013-01-25 04:30:00,5.4,-8.1,30.24,North,1,1.0,5.0,53,0.00,CLR,,0.00,WeatherDisplay:10.37,2013-01-25 09:30:00,
2013-01-25 04:35:00,5.1,-8.3,30.24,North,2,3.0,14.0,53,0.00,CLR,,0.00,WeatherDisplay:10.37,2013-01-25 09:35:00,
2013-01-25 04:40:00,5.8,-7.7,30.24,North,3,0.0,9.0,53,0.00,CLR,,0.00,WeatherDisplay:10.37,2013-01-25 09:40:00,
2013-01-25 04:45:00,5.2,-8.2,30.25,North,3,0.0,3.0,53,0.00,CLR,,0.00,WeatherDisplay:10.37,2013-01-25 09:45:00,
2013-01-25 04:50:00,4.3,-9.0,30.25,North,3,0.0,0.0,53,0.00,CLR,,0.00,WeatherDisplay:10.37,2013-01-25 09:50:00,
2013-01-25 04:55:00,4.0,-9.4,30.25,North,3,0.0,0.0,53,0.00,CLR,,0.00,WeatherDisplay:10.37,2013-01-25 09:55:00,
2013-01-25 05:00:00,3.6,-9.7,30.25,North,3,0.0,0.0,53,0.00,CLR,,0.00,WeatherDisplay:10.37,2013-01-25 10:00:00,
2013-01-25 05:05:00,3.9,-9.5,30.25,North,3,1.0,7.0,53,0.00,CLR,,0.00,WeatherDisplay:10.37,2013-01-25 10:05:00,
2013-01-25 05:10:00,3.7,-9.7,30.25,North,3,0.0,0.0,53,0.00,CLR,,0.00,WeatherDisplay:10.37,2013-01-25 10:10:00,
2013-01-25 05:15:00,4.3,-9.0,30.25,North,2,0.0,5.0,53,0.00,CLR,,0.00,WeatherDisplay:10.37,2013-01-25 10:15:00,
2013-01-25 05:20:00,4.4,-9.0,30.25,North,1,0.0,0.0,53,0.00,CLR,,0.00,WeatherDisplay:10.37,2013-01-25 10:20:00,
2013-01-25 05:25:00,4.2,-9.2,30.25,North,1,0.0,0.0,53,0.00,CLR,,0.00,WeatherDisplay:10.37,2013-01-25 10:25:00,
2013-01-25 05:30:00,4.4,-9.0,30.25,North,1,0.0,3.0,53,0.00,CLR,,0.00,WeatherDisplay:10.37,2013-01-25 10:30:00,
2013-01-25 05:35:00,3.8,-9.6,30.25,North,0,0.0,0.0,53,0.00,CLR,,0.00,WeatherDisplay:10.37,2013-01-25 10:35:00,
2013-01-25 05:40:00,3.7,-9.6,30.26,North,0,0.0,0.0,53,0.00,CLR,,0.00,WeatherDisplay:10.37,2013-01-25 10:40:00,
2013-01-25 05:45:00,4.0,-9.4,30.26,North,0,0.0,0.0,53,0.00,CLR,,0.00,WeatherDisplay:10.37,2013-01-25 10:45:00,
2013-01-25 05:50:00,3.8,-9.6,30.26,North,0,0.0,0.0,53,0.00,CLR,,0.00,WeatherDisplay:10.37,2013-01-25 10:50:00,
2013-01-25 05:55:00,3.5,-9.8,30.26,North,1,0.0,6.0,53,0.00,CLR,,0.00,WeatherDisplay:10.37,2013-01-25 10:55:00,
2013-01-25 06:00:00,3.6,-9.7,30.26,North,1,0.0,7.0,53,0.00,CLR,,0.00,WeatherDisplay:10.37,2013-01-25 11:00:00,
2013-01-25 06:05:00,3.2,-10.2,30.26,North,1,0.0,3.0,53,0.00,CLR,,0.00,WeatherDisplay:10.37,2013-01-25 11:05:00,
2013-01-25 06:15:00,3.4,-10.0,30.26,North,2,0.0,8.0,53,0.00,CLR,,0.00,WeatherDisplay:10.37,2013-01-25 11:15:00,
2013-01-25 06:20:00,3.1,-10.2,30.26,North,1,0.0,0.0,53,0.00,CLR,,0.00,WeatherDisplay:10.37,2013-01-25 11:20:00,
2013-01-25 06:25:00,2.6,-10.7,30.26,North,1,0.0,0.0,53,0.00,CLR,,0.00,WeatherDisplay:10.37,2013-01-25 11:25:00,
2013-01-25 06:30:00,3.1,-10.2,30.26,North,1,0.0,0.0,53,0.00,CLR,,0.00,WeatherDisplay:10.37,2013-01-25 11:30:00,
2013-01-25 06:35:00,2.9,-10.4,30.26,North,1,0.0,0.0,53,0.00,CLR,,0.00,WeatherDisplay:10.37,2013-01-25 11:35:00,
2013-01-25 06:40:00,3.4,-9.9,30.26,North,1,0.0,0.0,53,0.00,CLR,,0.00,WeatherDisplay:10.37,2013-01-25 11:40:00,
2013-01-25 06:45:00,4.3,-9.1,30.26,North,1,1.0,5.0,53,0.00,CLR,,0.00,WeatherDisplay:10.37,2013-01-25 11:45:00,
2013-01-25 06:50:00,3.5,-9.8,30.26,North,1,0.0,0.0,53,0.00,CLR,,0.00,WeatherDisplay:10.37,2013-01-25 11:50:00,
2013-01-25 06:55:00,4.2,-9.2,30.26,North,1,0.0,0.0,53,0.00,CLR,,0.00,WeatherDisplay:10.37,2013-01-25 11:55:00,
2013-01-25 07:00:00,4.0,-9.3,30.26,North,1,0.0,0.0,53,0.00,CLR,,0.00,WeatherDisplay:10.37,2013-01-25 12:00:00,
2013-01-25 07:05:00,4.1,-9.3,30.27,North,1,0.0,0.0,53,0.00,CLR,,0.00,WeatherDisplay:10.37,2013-01-25 12:05:00,
2013-01-25 07:10:00,4.2,-9.2,30.27,North,1,0.0,0.0,53,0.00,CLR,,0.00,WeatherDisplay:10.37,2013-01-25 12:10:00,
2013-01-25 07:15:00,4.2,-9.2,30.27,North,1,0.0,0.0,53,0.00,CLR,,0.00,WeatherDisplay:10.37,2013-01-25 12:15:00,
2013-01-25 07:20:00,3.8,-9.5,30.27,North,1,0.0,0.0,53,0.00,CLR,,0.00,WeatherDisplay:10.37,2013-01-25 12:20:00,
2013-01-25 07:25:00,4.5,-8.9,30.27,North,1,0.0,0.0,53,0.00,CLR,,0.00,WeatherDisplay:10.37,2013-01-25 12:25:00,
2013-01-25 07:30:00,4.1,-9.2,30.27,North,1,0.0,6.0,53,0.00,CLR,,0.00,WeatherDisplay:10.37,2013-01-25 12:30:00,
2013-01-25 07:35:00,3.7,-9.7,30.27,North,1,0.0,0.0,53,0.00,CLR,,0.00,WeatherDisplay:10.37,2013-01-25 12:35:00,
2013-01-25 07:40:00,4.5,-8.9,30.27,North,1,0.0,0.0,53,0.00,CLR,,0.00,WeatherDisplay:10.37,2013-01-25 12:40:00,
2013-01-25 07:45:00,3.8,-9.5,30.27,North,1,0.0,0.0,53,0.00,CLR,,0.00,WeatherDisplay:10.37,2013-01-25 12:45:00,
2013-01-25 07:50:00,3.9,-9.5,30.28,North,2,0.0,3.0,53,0.00,CLR,,0.00,WeatherDisplay:10.37,2013-01-25 12:50:00,
2013-01-25 07:55:00,4.0,-9.4,30.28,North,3,0.0,0.0,53,0.00,CLR,,0.00,WeatherDisplay:10.37,2013-01-25 12:55:00,
2013-01-25 08:00:00,4.2,-9.2,30.28,North,3,0.0,0.0,53,0.00,CLR,,0.00,WeatherDisplay:10.37,2013-01-25 13:00:00,
2013-01-25 08:05:00,3.8,-10.4,30.28,North,3,1.0,6.0,51,0.00,CLR,,0.00,WeatherDisplay:10.37,2013-01-25 13:05:00,
2013-01-25 08:10:00,4.3,-9.9,30.29,North,3,0.0,6.0,51,0.00,CLR,,0.00,WeatherDisplay:10.37,2013-01-25 13:10:00,
2013-01-25 08:15:00,5.0,-9.3,30.29,North,3,0.0,7.0,51,0.00,CLR,,0.00,WeatherDisplay:10.37,2013-01-25 13:15:00,
2013-01-25 08:20:00,4.3,-9.9,30.29,North,2,0.0,5.0,51,0.00,CLR,,0.00,WeatherDisplay:10.37,2013-01-25 13:20:00,
2013-01-25 08:25:00,4.4,-9.7,30.29,North,1,0.0,0.0,51,0.00,CLR,,0.00,WeatherDisplay:10.37,2013-01-25 13:25:00,
2013-01-25 08:30:00,5.2,-9.0,30.29,North,1,3.0,9.0,51,0.00,CLR,,0.00,WeatherDisplay:10.37,2013-01-25 13:30:00,
2013-01-25 08:35:00,5.2,-9.0,30.29,North,1,3.0,8.0,51,0.00,CLR,,0.00,WeatherDisplay:10.37,2013-01-25 13:35:00,
2013-01-25 08:40:00,4.9,-9.3,30.30,North,1,0.0,8.0,51,0.00,CLR,,0.00,WeatherDisplay:10.37,2013-01-25 13:40:00,
2013-01-25 08:45:00,5.3,-9.0,30.29,North,1,0.0,5.0,51,0.00,CLR,,0.00,WeatherDisplay:10.37,2013-01-25 13:45:00,
2013-01-25 08:50:00,5.9,-8.4,30.30,North,1,0.0,8.0,51,0.00,CLR,,0.00,WeatherDisplay:10.37,2013-01-25 13:50:00,
2013-01-25 08:55:00,6.7,-7.6,30.30,North,1,0.0,0.0,51,0.00,CLR,,0.00,WeatherDisplay:10.37,2013-01-25 13:55:00,
2013-01-25 09:00:00,6.2,-8.1,30.30,North,1,0.0,0.0,51,0.00,CLR,,0.00,WeatherDisplay:10.37,2013-01-25 14:00:00,
2013-01-25 09:05:00,6.3,-10.1,30.30,North,1,1.0,7.0,46,0.00,CLR,,0.00,WeatherDisplay:10.37,2013-01-25 14:05:00,
2013-01-25 09:10:00,6.7,-9.7,30.29,North,1,0.0,0.0,46,0.00,CLR,,0.00,WeatherDisplay:10.37,2013-01-25 14:10:00,
2013-01-25 09:15:00,7.9,-8.7,30.29,North,1,0.0,0.0,46,0.00,CLR,,0.00,WeatherDisplay:10.37,2013-01-25 14:15:00,
2013-01-25 09:20:00,7.2,-9.3,30.29,North,0,0.0,8.0,46,0.00,CLR,,0.00,WeatherDisplay:10.37,2013-01-25 14:20:00,
2013-01-25 09:30:00,7.6,-8.9,30.29,North,1,1.0,5.0,46,0.00,CLR,,0.00,WeatherDisplay:10.37,2013-01-25 14:30:00,
2013-01-25 09:35:00,7.9,-8.6,30.29,North,1,0.0,2.0,46,0.00,CLR,,0.00,WeatherDisplay:10.37,2013-01-25 14:35:00,
2013-01-25 09:40:00,8.6,-8.0,30.29,North,5,0.0,0.0,46,0.00,CLR,,0.00,WeatherDisplay:10.37,2013-01-25 14:40:00,
2013-01-25 09:50:00,9.3,-7.4,30.28,North,1,0.0,10.0,46,0.00,CLR,,0.00,WeatherDisplay:10.37,2013-01-25 14:50:00,
2013-01-25 09:55:00,10.2,-6.5,30.27,North,360,0.0,6.0,46,0.00,CLR,,0.00,WeatherDisplay:10.37,2013-01-25 14:55:00,
2013-01-25 10:00:00,10.5,-6.2,30.27,North,360,0.0,6.0,46,0.00,CLR,,0.00,WeatherDisplay:10.37,2013-01-25 15:00:00,
2013-01-25 10:05:00,11.4,-7.3,30.27,North,0,0.0,0.0,42,0.00,CLR,,0.00,WeatherDisplay:10.37,2013-01-25 15:05:00,
2013-01-25 10:10:00,11.6,-7.1,30.27,North,360,2.0,7.0,42,0.00,CLR,,0.00,WeatherDisplay:10.37,2013-01-25 15:10:00,
2013-01-25 10:15:00,12.5,-6.2,30.27,North,1,0.0,8.0,42,0.00,CLR,,0.00,WeatherDisplay:10.37,2013-01-25 15:15:00,
2013-01-25 10:20:00,13.1,-5.7,30.28,North,2,2.0,8.0,42,0.00,CLR,,0.00,WeatherDisplay:10.37,2013-01-25 15:20:00,
2013-01-25 10:25:00,12.6,-6.2,30.27,North,360,3.0,11.0,42,0.00,CLR,,0.00,WeatherDisplay:10.37,2013-01-25 15:25:00,
2013-01-25 10:30:00,13.3,-5.6,30.27,NNW,336,2.0,10.0,42,0.00,CLR,,0.00,WeatherDisplay:10.37,2013-01-25 15:30:00,
2013-01-25 10:40:00,13.3,-5.5,30.28,WNW,294,1.0,8.0,42,0.00,CLR,,0.00,WeatherDisplay:10.37,2013-01-25 15:40:00,
2013-01-25 10:45:00,13.2,-5.6,30.27,NW,312,3.0,9.0,42,0.00,CLR,,0.00,WeatherDisplay:10.37,2013-01-25 15:45:00,
2013-01-25 10:50:00,14.6,-4.3,30.27,NW,319,0.0,7.0,42,0.00,CLR,,0.00,WeatherDisplay:10.37,2013-01-25 15:50:00,
2013-01-25 11:00:00,14.7,-4.2,30.26,NNW,333,1.0,5.0,42,0.00,CLR,,0.00,WeatherDisplay:10.37,2013-01-25 16:00:00,
2013-01-25 11:05:00,14.9,-4.6,30.25,NNW,335,0.0,6.0,41,0.00,CLR,,0.00,WeatherDisplay:10.37,2013-01-25 16:05:00,
2013-01-25 11:10:00,16.0,-3.6,30.25,NNW,337,0.0,5.0,41,0.00,CLR,,0.00,WeatherDisplay:10.37,2013-01-25 16:10:00,
2013-01-25 11:15:00,15.2,-4.4,30.25,NNW,337,1.0,3.0,41,0.00,CLR,,0.00,WeatherDisplay:10.37,2013-01-25 16:15:00,
2013-01-25 11:25:00,16.7,-2.9,30.25,NNW,332,0.0,0.0,41,0.00,CLR,,0.00,WeatherDisplay:10.37,2013-01-25 16:25:00,
2013-01-25 11:30:00,17.3,-2.4,30.25,NNW,332,0.0,0.0,41,0.00,CLR,,0.00,WeatherDisplay:10.37,2013-01-25 16:30:00,
2013-01-25 11:35:00,18.0,-1.8,30.24,NNW,338,0.0,5.0,41,0.00,CLR,,0.00,WeatherDisplay:10.37,2013-01-25 16:35:00,
2013-01-25 11:40:00,17.7,-2.1,30.24,NNW,341,1.0,7.0,41,0.00,CLR,,0.00,WeatherDisplay:10.37,2013-01-25 16:40:00,
2013-01-25 11:45:00,17.4,-2.3,30.24,NNW,337,0.0,4.0,41,0.00,CLR,,0.00,WeatherDisplay:10.37,2013-01-25 16:45:00,
2013-01-25 11:50:00,17.2,-2.5,30.23,NW,322,0.0,5.0,41,0.00,CLR,,0.00,WeatherDisplay:10.37,2013-01-25 16:50:00,
2013-01-25 11:55:00,17.8,-1.9,30.23,NW,320,0.0,5.0,41,0.00,CLR,,0.00,WeatherDisplay:10.37,2013-01-25 16:55:00,
2013-01-25 12:05:00,17.8,-3.0,30.23,NNW,335,0.0,5.0,39,0.00,CLR,,0.00,WeatherDisplay:10.37,2013-01-25 17:05:00,
2013-01-25 12:10:00,17.6,-3.2,30.23,NW,322,2.0,8.0,39,0.00,CLR,,0.00,WeatherDisplay:10.37,2013-01-25 17:10:00,
2013-01-25 12:15:00,17.0,-3.7,30.23,NW,306,0.0,6.0,39,0.00,CLR,,0.00,WeatherDisplay:10.37,2013-01-25 17:15:00,
2013-01-25 12:25:00,17.2,-3.6,30.23,WNW,296,2.0,6.0,39,0.00,CLR,,0.00,WeatherDisplay:10.37,2013-01-25 17:25:00,
2013-01-25 12:30:00,16.9,-3.8,30.23,NW,309,0.0,5.0,39,0.00,CLR,,0.00,WeatherDisplay:10.37,2013-01-25 17:30:00,
2013-01-25 12:35:00,18.1,-2.7,30.22,NW,313,0.0,3.0,39,0.00,CLR,,0.00,WeatherDisplay:10.37,2013-01-25 17:35:00,
2013-01-25 12:40:00,17.5,-3.3,30.22,WNW,292,3.0,10.0,39,0.00,CLR,,0.00,WeatherDisplay:10.37,2013-01-25 17:40:00,
2013-01-25 12:45:00,17.8,-3.0,30.22,WNW,286,3.0,7.0,39,0.00,CLR,,0.00,WeatherDisplay:10.37,2013-01-25 17:45:00,
2013-01-25 12:50:00,18.8,-2.1,30.22,WNW,287,1.0,7.0,39,0.00,CLR,,0.00,WeatherDisplay:10.37,2013-01-25 17:50:00,
2013-01-25 12:55:00,18.5,-2.4,30.21,WNW,286,0.0,5.0,39,0.00,CLR,,0.00,WeatherDisplay:10.37,2013-01-25 17:55:00,
2013-01-25 13:00:00,19.1,-1.8,30.21,WNW,292,5.0,10.0,39,0.00,CLR,,0.00,WeatherDisplay:10.37,2013-01-25 18:00:00,
2013-01-25 13:05:00,18.9,-4.9,30.21,WNW,284,0.0,5.0,34,0.00,CLR,,0.00,WeatherDisplay:10.37,2013-01-25 18:05:00,
2013-01-25 13:15:00,19.5,-4.4,30.20,WNW,298,1.0,5.0,34,0.00,CLR,,0.00,WeatherDisplay:10.37,2013-01-25 18:15:00,
2013-01-25 13:20:00,18.3,-5.4,30.20,NW,307,0.0,7.0,34,0.00,CLR,,0.00,WeatherDisplay:10.37,2013-01-25 18:20:00,
2013-01-25 13:25:00,18.0,-5.7,30.20,WNW,302,1.0,7.0,34,0.00,CLR,,0.00,WeatherDisplay:10.37,2013-01-25 18:25:00,
2013-01-25 13:30:00,19.3,-4.5,30.19,WNW,297,0.0,0.0,34,0.00,CLR,,0.00,WeatherDisplay:10.37,2013-01-25 18:30:00,
2013-01-25 13:35:00,18.3,-5.4,30.19,WNW,297,0.0,7.0,34,0.00,CLR,,0.00,WeatherDisplay:10.37,2013-01-25 18:35:00,
2013-01-25 13:40:00,19.3,-4.5,30.18,WNW,303,0.0,5.0,34,0.00,CLR,,0.00,WeatherDisplay:10.37,2013-01-25 18:40:00,
2013-01-25 13:50:00,19.5,-4.4,30.17,WNW,286,0.0,6.0,34,0.00,CLR,,0.00,WeatherDisplay:10.37,2013-01-25 18:50:00,
2013-01-25 14:00:00,18.5,-5.2,30.17,WNW,296,0.0,7.0,34,0.00,CLR,,0.00,WeatherDisplay:10.37,2013-01-25 19:00:00,
2013-01-25 14:05:00,18.6,-9.1,30.17,WNW,298,3.0,8.0,28,0.00,CLR,,0.00,WeatherDisplay:10.37,2013-01-25 19:05:00,
2013-01-25 14:10:00,19.0,-8.8,30.17,WNW,300,0.0,6.0,28,0.00,CLR,,0.00,WeatherDisplay:10.37,2013-01-25 19:10:00,
2013-01-25 14:15:00,19.2,-8.7,30.17,WNW,302,0.0,0.0,28,0.00,CLR,,0.00,WeatherDisplay:10.37,2013-01-25 19:15:00,
2013-01-25 14:20:00,19.0,-8.8,30.17,NW,305,0.0,8.0,28,0.00,CLR,,0.00,WeatherDisplay:10.37,2013-01-25 19:20:00,
2013-01-25 14:25:00,18.0,-9.7,30.16,NW,307,0.0,0.0,28,0.00,CLR,,0.00,WeatherDisplay:10.37,2013-01-25 19:25:00,
2013-01-25 14:30:00,19.5,-8.4,30.16,NW,308,0.0,0.0,28,0.00,CLR,,0.00,WeatherDisplay:10.37,2013-01-25 19:30:00,
2013-01-25 14:35:00,19.3,-8.6,30.16,NW,308,0.0,0.0,28,0.00,CLR,,0.00,WeatherDisplay:10.37,2013-01-25 19:35:00,
2013-01-25 14:45:00,19.0,-8.8,30.15,NW,308,0.0,0.0,28,0.00,CLR,,0.00,WeatherDisplay:10.37,2013-01-25 19:45:00,
2013-01-25 14:50:00,19.1,-8.7,30.15,NW,308,0.0,0.0,28,0.00,CLR,,0.00,WeatherDisplay:10.37,2013-01-25 19:50:00,
2013-01-25 14:55:00,19.2,-8.6,30.15,NW,308,0.0,0.0,28,0.00,CLR,,0.00,WeatherDisplay:10.37,2013-01-25 19:55:00,
2013-01-25 15:00:00,19.7,-8.2,30.15,NW,308,0.0,0.0,28,0.00,CLR,,0.00,WeatherDisplay:10.37,2013-01-25 20:00:00,
2013-01-25 15:05:00,18.8,-9.8,30.15,NW,308,0.0,0.0,27,0.00,CLR,,0.00,WeatherDisplay:10.37,2013-01-25 20:05:00,
2013-01-25 15:10:00,18.3,-10.2,30.15,NW,308,0.0,0.0,27,0.00,CLR,,0.00,WeatherDisplay:10.37,2013-01-25 20:10:00,
2013-01-25 15:15:00,19.7,-9.0,30.15,NW,308,0.0,0.0,27,0.00,CLR,,0.00,WeatherDisplay:10.37,2013-01-25 20:15:00,
2013-01-25 15:20:00,19.4,-9.2,30.14,NW,308,0.0,0.0,27,0.00,CLR,,0.00,WeatherDisplay:10.37,2013-01-25 20:20:00,
2013-01-25 15:25:00,19.4,-9.2,30.14,NW,308,0.0,0.0,27,0.00,CLR,,0.00,WeatherDisplay:10.37,2013-01-25 20:25:00,
2013-01-25 15:30:00,18.4,-10.1,30.14,NW,308,0.0,0.0,27,0.00,CLR,,0.00,WeatherDisplay:10.37,2013-01-25 20:30:00,
2013-01-25 15:35:00,19.3,-9.3,30.14,NW,308,0.0,0.0,27,0.00,CLR,,0.00,WeatherDisplay:10.37,2013-01-25 20:35:00,
2013-01-25 15:40:00,19.4,-9.2,30.14,NW,308,0.0,0.0,27,0.00,CLR,,0.00,WeatherDisplay:10.37,2013-01-25 20:40:00,
2013-01-25 15:45:00,19.2,-9.4,30.15,NW,308,0.0,0.0,27,0.00,CLR,,0.00,WeatherDisplay:10.37,2013-01-25 20:45:00,
2013-01-25 15:50:00,19.3,-9.3,30.15,NW,308,0.0,0.0,27,0.00,CLR,,0.00,WeatherDisplay:10.37,2013-01-25 20:50:00,
2013-01-25 15:55:00,18.8,-9.7,30.14,NW,308,0.0,0.0,27,0.00,CLR,,0.00,WeatherDisplay:10.37,2013-01-25 20:55:00,
2013-01-25 16:00:00,18.0,-10.4,30.14,NW,308,0.0,0.0,27,0.00,CLR,,0.00,WeatherDisplay:10.37,2013-01-25 21:00:00,
2013-01-25 16:05:00,17.9,-9.8,30.14,NW,308,0.0,0.0,28,0.00,CLR,,0.00,WeatherDisplay:10.37,2013-01-25 21:05:00,
2013-01-25 16:10:00,18.0,-9.7,30.14,NW,308,0.0,0.0,28,0.00,CLR,,0.00,WeatherDisplay:10.37,2013-01-25 21:10:00,
2013-01-25 16:15:00,18.4,-9.3,30.14,NW,308,0.0,0.0,28,0.00,CLR,,0.00,WeatherDisplay:10.37,2013-01-25 21:15:00,
2013-01-25 16:20:00,18.7,-9.0,30.14,NW,308,0.0,0.0,28,0.00,CLR,,0.00,WeatherDisplay:10.37,2013-01-25 21:20:00,
2013-01-25 16:25:00,18.6,-9.2,30.14,NW,308,0.0,0.0,28,0.00,CLR,,0.00,WeatherDisplay:10.37,2013-01-25 21:25:00,
2013-01-25 16:30:00,18.2,-9.6,30.14,NW,308,0.0,0.0,28,0.00,CLR,,0.00,WeatherDisplay:10.37,2013-01-25 21:30:00,
2013-01-25 16:35:00,18.2,-9.5,30.14,NW,308,0.0,0.0,28,0.00,CLR,,0.00,WeatherDisplay:10.37,2013-01-25 21:35:00,
2013-01-25 16:40:00,17.1,-10.4,30.14,NW,308,0.0,0.0,28,0.00,CLR,,0.00,WeatherDisplay:10.37,2013-01-25 21:40:00,
2013-01-25 16:45:00,17.5,-10.1,30.15,NW,308,0.0,0.0,28,0.00,CLR,,0.00,WeatherDisplay:10.37,2013-01-25 21:45:00,
2013-01-25 16:50:00,17.2,-10.4,30.14,NW,308,0.0,0.0,28,0.00,CLR,,0.00,WeatherDisplay:10.37,2013-01-25 21:50:00,
2013-01-25 16:55:00,17.8,-9.8,30.15,NW,308,0.0,0.0,28,0.00,CLR,,0.00,WeatherDisplay:10.37,2013-01-25 21:55:00,
2013-01-25 17:00:00,16.9,-10.7,30.14,NW,308,0.0,0.0,28,0.00,CLR,,0.00,WeatherDisplay:10.37,2013-01-25 22:00:00,
2013-01-25 17:05:00,17.0,-9.1,30.14,NW,308,0.0,0.0,30,0.00,CLR,,0.00,WeatherDisplay:10.37,2013-01-25 22:05:00,
2013-01-25 17:10:00,17.4,-8.8,30.14,NW,308,0.0,0.0,30,0.00,CLR,,0.00,WeatherDisplay:10.37,2013-01-25 22:10:00,
2013-01-25 17:15:00,17.3,-8.9,30.14,NW,308,0.0,0.0,30,0.00,CLR,,0.00,WeatherDisplay:10.37,2013-01-25 22:15:00,
2013-01-25 17:20:00,17.4,-8.8,30.14,NW,308,0.0,0.0,30,0.00,CLR,,0.00,WeatherDisplay:10.37,2013-01-25 22:20:00,
2013-01-25 17:25:00,16.0,-10.1,30.13,NW,308,0.0,0.0,30,0.00,CLR,,0.00,WeatherDisplay:10.37,2013-01-25 22:25:00,
2013-01-25 17:35:00,17.6,-8.6,30.13,NW,308,0.0,0.0,30,0.00,CLR,,0.00,WeatherDisplay:10.37,2013-01-25 22:35:00,
2013-01-25 17:40:00,17.1,-9.1,30.13,NW,308,0.0,0.0,30,0.00,CLR,,0.00,WeatherDisplay:10.37,2013-01-25 22:40:00,
2013-01-25 17:45:00,16.3,-9.8,30.13,NW,308,0.0,0.0,30,0.00,CLR,,0.00,WeatherDisplay:10.37,2013-01-25 22:45:00,
2013-01-25 17:50:00,16.6,-9.5,30.13,NW,308,0.0,0.0,30,0.00,CLR,,0.00,WeatherDisplay:10.37,2013-01-25 22:50:00,
2013-01-25 17:55:00,16.7,-9.5,30.13,NW,308,0.0,0.0,30,0.00,CLR,,0.00,WeatherDisplay:10.37,2013-01-25 22:55:00,
2013-01-25 18:00:00,16.3,-9.8,30.13,NW,308,0.0,0.0,30,0.00,CLR,,0.00,WeatherDisplay:10.37,2013-01-25 23:00:00,
2013-01-25 18:05:00,15.9,-9.5,30.13,NW,308,0.0,0.0,31,0.00,FEW,,0.00,WeatherDisplay:10.37,2013-01-25 23:05:00,
2013-01-25 18:10:00,16.1,-9.3,30.12,NW,308,0.0,0.0,31,0.00,FEW,,0.00,WeatherDisplay:10.37,2013-01-25 23:10:00,
2013-01-25 18:15:00,16.6,-8.9,30.12,NW,308,0.0,0.0,31,0.00,FEW,,0.00,WeatherDisplay:10.37,2013-01-25 23:15:00,
2013-01-25 18:20:00,16.7,-8.8,30.12,NW,308,0.0,0.0,31,0.00,FEW,,0.00,WeatherDisplay:10.37,2013-01-25 23:20:00,
2013-01-25 18:25:00,15.2,-10.0,30.12,NW,308,0.0,0.0,31,0.00,FEW,,0.00,WeatherDisplay:10.37,2013-01-25 23:25:00,
2013-01-25 18:30:00,15.5,-9.9,30.11,NW,308,0.0,0.0,31,0.00,FEW,,0.00,WeatherDisplay:10.37,2013-01-25 23:30:00,
2013-01-25 18:35:00,16.8,-8.7,30.11,NW,308,0.0,0.0,31,0.00,FEW,,0.00,WeatherDisplay:10.37,2013-01-25 23:35:00,
2013-01-25 18:40:00,15.4,-9.9,30.11,NW,308,0.0,0.0,31,0.00,FEW,,0.00,WeatherDisplay:10.37,2013-01-25 23:40:00,
2013-01-25 18:45:00,15.6,-9.7,30.11,NW,308,0.0,0.0,31,0.00,FEW,,0.00,WeatherDisplay:10.37,2013-01-25 23:45:00,
2013-01-25 18:50:00,16.2,-9.2,30.11,NW,308,0.0,0.0,31,0.00,FEW,,0.00,WeatherDisplay:10.37,2013-01-25 23:50:00,
2013-01-25 18:55:00,16.2,-9.2,30.11,NW,308,0.0,0.0,31,0.00,FEW,,0.00,WeatherDisplay:10.37,2013-01-25 23:55:00,
2013-01-25 19:00:00,15.6,-9.7,30.10,NW,308,0.0,0.0,31,0.00,FEW,,0.00,WeatherDisplay:10.37,2013-01-26 00:00:00,
2013-01-25 19:05:00,15.9,-7.6,30.10,NW,308,0.0,0.0,34,0.00,OVC,,0.00,WeatherDisplay:10.37,2013-01-26 00:05:00,
2013-01-25 19:10:00,15.7,-7.8,30.10,NW,308,0.0,0.0,34,0.00,OVC,,0.00,WeatherDisplay:10.37,2013-01-26 00:10:00,
2013-01-25 19:15:00,16.3,-7.2,30.10,NW,308,0.0,0.0,34,0.00,OVC,,0.00,WeatherDisplay:10.37,2013-01-26 00:15:00,
2013-01-25 19:20:00,17.4,-6.3,30.10,NW,308,0.0,0.0,34,0.00,OVC,,0.00,WeatherDisplay:10.37,2013-01-26 00:20:00,
2013-01-25 19:25:00,17.0,-6.6,30.10,NW,308,0.0,0.0,34,0.00,OVC,,0.00,WeatherDisplay:10.37,2013-01-26 00:25:00,
2013-01-25 19:30:00,16.6,-7.0,30.09,NW,308,0.0,0.0,34,0.00,OVC,,0.00,WeatherDisplay:10.37,2013-01-26 00:30:00,
2013-01-25 19:35:00,15.2,-8.2,30.09,NW,308,0.0,0.0,34,0.00,OVC,,0.00,WeatherDisplay:10.37,2013-01-26 00:35:00,
2013-01-25 19:40:00,15.8,-7.7,30.08,NW,308,0.0,0.0,34,0.00,OVC,,0.00,WeatherDisplay:10.37,2013-01-26 00:40:00,
2013-01-25 19:45:00,15.2,-8.2,30.08,NW,308,0.0,0.0,34,0.00,OVC,,0.00,WeatherDisplay:10.37,2013-01-26 00:45:00,
2013-01-25 19:50:00,14.8,-8.5,30.08,NW,308,0.0,0.0,34,0.00,OVC,,0.00,WeatherDisplay:10.37,2013-01-26 00:50:00,
2013-01-25 19:55:00,16.4,-7.2,30.08,NW,308,0.0,0.0,34,0.00,OVC,,0.00,WeatherDisplay:10.37,2013-01-26 00:55:00,
2013-01-25 20:00:00,17.2,-6.4,30.08,NW,308,0.0,0.0,34,0.00,OVC,,0.00,WeatherDisplay:10.37,2013-01-26 01:00:00,
2013-01-25 20:05:00,17.0,-6.6,30.08,NW,308,0.0,0.0,34,0.00,OVC,,0.00,WeatherDisplay:10.37,2013-01-26 01:05:00,
2013-01-25 20:10:00,15.8,-7.7,30.08,NW,308,0.0,0.0,34,0.00,OVC,,0.00,WeatherDisplay:10.37,2013-01-26 01:10:00,
2013-01-25 20:15:00,17.5,-6.2,30.08,NW,308,0.0,0.0,34,0.00,OVC,,0.00,WeatherDisplay:10.37,2013-01-26 01:15:00,
2013-01-25 20:20:00,17.2,-6.4,30.08,NW,308,0.0,0.0,34,0.00,OVC,,0.00,WeatherDisplay:10.37,2013-01-26 01:20:00,
2013-01-25 20:25:00,17.0,-6.6,30.08,NW,308,0.0,0.0,34,0.00,OVC,,0.00,WeatherDisplay:10.37,2013-01-26 01:25:00,
2013-01-25 20:30:00,17.3,-6.3,30.08,NW,308,0.0,0.0,34,0.00,OVC,,0.00,WeatherDisplay:10.37,2013-01-26 01:30:00,
2013-01-25 20:35:00,16.3,-7.2,30.08,NW,308,0.0,0.0,34,0.00,OVC,,0.00,WeatherDisplay:10.37,2013-01-26 01:35:00,
2013-01-25 20:40:00,14.9,-8.5,30.08,NW,308,0.0,0.0,34,0.00,OVC,,0.00,WeatherDisplay:10.37,2013-01-26 01:40:00,
2013-01-25 20:50:00,15.7,-7.7,30.08,NW,308,0.0,0.0,34,0.00,OVC,,0.00,WeatherDisplay:10.37,2013-01-26 01:50:00,
2013-01-25 20:55:00,15.9,-7.6,30.08,NW,308,0.0,0.0,34,0.00,OVC,,0.00,WeatherDisplay:10.37,2013-01-26 01:55:00,
2013-01-25 21:00:00,16.6,-7.0,30.08,NW,308,0.0,0.0,34,0.00,OVC,,0.00,WeatherDisplay:10.37,2013-01-26 02:00:00,
2013-01-25 21:05:00,17.2,-5.3,30.07,NW,308,0.0,0.0,36,0.00,OVC,,0.00,WeatherDisplay:10.37,2013-01-26 02:05:00,
2013-01-25 21:10:00,15.7,-6.6,30.07,NW,308,0.0,0.0,36,0.00,OVC,,0.00,WeatherDisplay:10.37,2013-01-26 02:10:00,
2013-01-25 21:15:00,16.7,-5.7,30.07,NW,308,0.0,0.0,36,0.00,OVC,,0.00,WeatherDisplay:10.37,2013-01-26 02:15:00,
2013-01-25 21:20:00,17.2,-5.3,30.07,NW,308,0.0,0.0,36,0.00,OVC,,0.00,WeatherDisplay:10.37,2013-01-26 02:20:00,
2013-01-25 21:25:00,17.2,-5.2,30.06,NW,308,0.0,0.0,36,0.00,OVC,,0.00,WeatherDisplay:10.37,2013-01-26 02:25:00,
2013-01-25 21:30:00,15.6,-6.7,30.06,NW,308,0.0,0.0,36,0.00,OVC,,0.00,WeatherDisplay:10.37,2013-01-26 02:30:00,
2013-01-25 21:35:00,17.0,-5.4,30.06,NW,308,0.0,0.0,36,0.00,OVC,,0.00,WeatherDisplay:10.37,2013-01-26 02:35:00,
2013-01-25 21:40:00,17.6,-4.8,30.06,NW,308,0.0,0.0,36,0.00,OVC,,0.00,WeatherDisplay:10.37,2013-01-26 02:40:00,
2013-01-25 21:45:00,17.7,-4.8,30.06,NW,308,0.0,0.0,36,0.00,OVC,,0.00,WeatherDisplay:10.37,2013-01-26 02:45:00,
2013-01-25 21:50:00,16.9,-5.5,30.06,NW,308,0.0,0.0,36,0.00,OVC,,0.00,WeatherDisplay:10.37,2013-01-26 02:50:00,
2013-01-25 21:55:00,16.7,-5.7,30.06,NW,308,0.0,0.0,36,0.00,OVC,,0.00,WeatherDisplay:10.37,2013-01-26 02:55:00,
2013-01-25 22:00:00,15.9,-6.4,30.06,NW,308,0.0,0.0,36,0.00,OVC,,0.00,WeatherDisplay:10.37,2013-01-26 03:00:00,
2013-01-25 22:05:00,14.6,-5.3,30.06,NW,308,0.0,0.0,40,0.00,OVC,,0.00,WeatherDisplay:10.37,2013-01-26 03:05:00,
2013-01-25 22:10:00,14.6,-5.4,30.06,NW,308,0.0,0.0,40,0.00,OVC,,0.00,WeatherDisplay:10.37,2013-01-26 03:10:00,
2013-01-25 22:15:00,17.2,-3.1,30.06,NW,308,0.0,0.0,40,0.00,OVC,,0.00,WeatherDisplay:10.37,2013-01-26 03:15:00,
2013-01-25 22:20:00,17.7,-2.6,30.06,NW,308,0.0,0.0,40,0.00,OVC,,0.00,WeatherDisplay:10.37,2013-01-26 03:20:00,
2013-01-25 22:25:00,17.1,-3.1,30.06,NW,308,0.0,0.0,40,0.00,OVC,,0.00,WeatherDisplay:10.37,2013-01-26 03:25:00,
2013-01-25 22:30:00,16.2,-3.9,30.06,NW,308,0.0,0.0,40,0.00,OVC,,0.00,WeatherDisplay:10.37,2013-01-26 03:30:00,
2013-01-25 22:35:00,16.4,-3.8,30.06,NW,308,0.0,0.0,40,0.00,OVC,,0.00,WeatherDisplay:10.37,2013-01-26 03:35:00,
2013-01-25 22:40:00,16.7,-3.4,30.06,NW,308,0.0,0.0,40,0.00,OVC,,0.00,WeatherDisplay:10.37,2013-01-26 03:40:00,
2013-01-25 22:45:00,15.3,-4.7,30.06,NW,308,0.0,0.0,40,0.00,OVC,,0.00,WeatherDisplay:10.37,2013-01-26 03:45:00,
2013-01-25 22:50:00,15.8,-4.3,30.06,NW,308,0.0,0.0,40,0.00,OVC,,0.00,WeatherDisplay:10.37,2013-01-26 03:50:00,
2013-01-25 22:55:00,14.8,-5.2,30.06,NW,308,0.0,0.0,40,0.00,OVC,,0.00,WeatherDisplay:10.37,2013-01-26 03:55:00,
2013-01-25 23:00:00,15.5,-4.6,30.06,NW,308,0.0,0.0,40,0.00,OVC,,0.00,WeatherDisplay:10.37,2013-01-26 04:00:00,
2013-01-25 23:10:00,14.7,2.2,30.06,NW,308,0.0,0.0,57,0.00,-SN,,0.00,WeatherDisplay:10.37,2013-01-26 04:10:00,
2013-01-25 23:15:00,15.0,2.5,30.06,NW,308,0.0,0.0,57,0.00,-SN,,0.00,WeatherDisplay:10.37,2013-01-26 04:15:00,
2013-01-25 23:20:00,14.6,2.1,30.06,NW,308,0.0,0.0,57,0.00,-SN,,0.00,WeatherDisplay:10.37,2013-01-26 04:20:00,
2013-01-25 23:25:00,14.6,2.1,30.06,NW,308,0.0,0.0,57,0.00,-SN,,0.00,WeatherDisplay:10.37,2013-01-26 04:25:00,
2013-01-25 23:30:00,15.0,2.5,30.06,NW,308,0.0,0.0,57,0.00,-SN,,0.00,WeatherDisplay:10.37,2013-01-26 04:30:00,
2013-01-25 23:35:00,15.8,8.4,30.06,NW,308,0.0,0.0,72,0.00,-SN,,0.00,WeatherDisplay:10.37,2013-01-26 04:35:00,
2013-01-25 23:40:00,15.2,7.8,30.06,NW,308,0.0,0.0,72,0.00,-SN,,0.00,WeatherDisplay:10.37,2013-01-26 04:40:00,
2013-01-25 23:45:00,15.6,8.1,30.06,NW,308,0.0,0.0,72,0.00,-SN,,0.00,WeatherDisplay:10.37,2013-01-26 04:45:00,
2013-01-25 23:50:00,13.9,6.5,30.05,NW,308,0.0,0.0,72,0.00,-SN,,0.00,WeatherDisplay:10.37,2013-01-26 04:50:00,
2013-01-25 23:55:00,13.8,8.2,30.05,NW,308,0.0,0.0,78,0.00,-SN,,0.00,WeatherDisplay:10.37,2013-01-26 04:55:00,